createdAt,value
2023-02-06T00:01:39.658Z,6.28
2023-02-06T00:03:43.090Z,4.40
2023-02-06T00:05:55.584Z,3.22
2023-02-06T00:07:58.967Z,3.75
2023-02-06T00:10:02.419Z,5.10
2023-02-06T00:12:07.727Z,3.42
2023-02-06T00:14:11.089Z,3.20
2023-02-06T00:16:18.859Z,2.30
2023-02-06T00:18:22.302Z,5.65
2023-02-06T00:20:25.699Z,3.70
2023-02-06T00:22:29.133Z,7.60
2023-02-06T00:24:32.505Z,7.93
2023-02-06T00:26:35.948Z,5.07
2023-02-06T00:28:40.819Z,5.47
2023-02-06T00:30:48.022Z,4.45
2023-02-06T00:32:51.546Z,3.72
2023-02-06T00:34:55.101Z,4.00
2023-02-06T00:36:58.615Z,5.22
2023-02-06T00:39:02.324Z,7.30
2023-02-06T00:41:06.009Z,4.60
2023-02-06T00:43:09.519Z,5.20
2023-02-06T00:45:14.442Z,2.90
2023-02-06T00:47:18.006Z,3.95
2023-02-06T00:49:21.405Z,2.70
2023-02-06T00:51:24.895Z,6.68
2023-02-06T00:53:28.428Z,2.13
2023-02-06T00:55:31.832Z,3.28
2023-02-06T00:57:35.298Z,3.60
2023-02-06T00:59:38.672Z,4.68
2023-02-06T01:01:43.577Z,2.97
2023-02-06T01:03:47.290Z,5.38
2023-02-06T01:05:50.785Z,6.30
2023-02-06T01:07:54.211Z,2.42
2023-02-06T01:09:57.671Z,4.57
2023-02-06T01:12:00.978Z,2.38
2023-02-06T01:14:04.447Z,5.95
2023-02-06T01:16:09.665Z,4.60
2023-02-06T01:18:14.509Z,3.45
2023-02-06T01:20:18.109Z,3.40
2023-02-06T01:22:21.490Z,2.90
2023-02-06T01:24:25.448Z,3.40
2023-02-06T01:26:28.924Z,4.05
2023-02-06T01:28:32.290Z,6.10
2023-02-06T01:30:35.838Z,3.70
2023-02-06T01:32:39.722Z,2.88
2023-02-06T01:34:44.620Z,5.60
2023-02-06T01:36:48.016Z,3.72
2023-02-06T01:38:52.346Z,4.75
2023-02-06T01:40:57.782Z,6.18
2023-02-06T01:43:02.213Z,4.13
2023-02-06T01:45:44.616Z,4.50
2023-02-06T01:47:48.210Z,3.72
2023-02-06T01:49:53.101Z,4.00
2023-02-06T01:52:01.834Z,3.63
2023-02-06T01:54:07.605Z,6.28
2023-02-06T01:56:11.989Z,4.43
2023-02-06T01:58:20.022Z,5.32
2023-02-06T02:00:23.717Z,7.55
2023-02-06T02:02:29.374Z,4.55
2023-02-06T02:04:34.263Z,4.90
2023-02-06T02:06:41.158Z,4.25
2023-02-06T02:08:46.515Z,4.68
2023-02-06T02:10:50.199Z,5.97
2023-02-06T02:12:53.566Z,4.22
2023-02-06T02:14:58.398Z,7.18
2023-02-06T02:17:20.531Z,3.95
2023-02-06T02:20:00.717Z,4.18
2023-02-06T02:22:38.515Z,8.15
2023-02-06T02:25:09.320Z,4.50
2023-02-06T02:27:41.419Z,3.05
2023-02-06T02:30:20.158Z,4.15
2023-02-06T02:32:53.097Z,7.72
2023-02-06T02:35:22.092Z,5.90
2023-02-06T02:37:32.447Z,4.45
2023-02-06T02:39:45.491Z,3.65
2023-02-06T02:41:54.484Z,3.88
2023-02-06T02:44:06.179Z,5.18
2023-02-06T02:46:19.124Z,4.78
2023-02-06T02:48:26.683Z,4.88
2023-02-06T02:50:32.431Z,4.15
2023-02-06T02:52:35.947Z,6.65
2023-02-06T02:54:39.519Z,3.38
2023-02-06T02:56:43.213Z,5.45
2023-02-06T02:58:49.800Z,4.43
2023-02-06T03:00:59.238Z,4.00
2023-02-06T03:03:02.909Z,4.18
2023-02-06T03:05:09.221Z,4.15
2023-02-06T03:07:20.041Z,4.55
2023-02-06T03:09:33.508Z,4.40
2023-02-06T03:11:42.533Z,5.93
2023-02-06T03:13:52.852Z,9.32
2023-02-06T03:16:03.170Z,8.10
2023-02-06T03:18:11.736Z,6.68
2023-02-06T03:20:17.358Z,5.93
2023-02-06T03:22:24.656Z,4.97
2023-02-06T03:24:33.216Z,4.45
2023-02-06T03:26:38.926Z,4.45
2023-02-06T03:28:47.106Z,8.23
2023-02-06T03:30:53.590Z,6.30
2023-02-06T03:33:02.858Z,3.28
2023-02-06T03:35:11.726Z,3.30
2023-02-06T03:37:15.626Z,6.88
2023-02-06T03:39:20.558Z,5.68
2023-02-06T03:41:29.850Z,4.00
2023-02-06T03:43:33.513Z,4.88
2023-02-06T03:45:42.456Z,4.38
2023-02-06T03:47:47.127Z,9.15
2023-02-06T03:49:52.165Z,11.70
2023-02-06T03:52:00.709Z,8.40
2023-02-06T03:54:07.111Z,6.57
2023-02-06T03:56:17.188Z,5.15
2023-02-06T03:58:20.636Z,9.10
2023-02-06T04:00:25.539Z,6.53
2023-02-06T04:02:30.152Z,5.53
2023-02-06T04:04:39.216Z,6.90
2023-02-06T04:06:42.662Z,4.75
2023-02-06T04:08:46.141Z,3.38
2023-02-06T04:10:49.552Z,4.93
2023-02-06T04:12:54.388Z,5.65
2023-02-06T04:14:57.834Z,3.50
2023-02-06T04:17:01.205Z,7.20
2023-02-06T04:19:04.638Z,4.15
2023-02-06T04:21:08.964Z,8.68
2023-02-06T04:23:12.452Z,3.38
2023-02-06T04:25:15.951Z,5.10
2023-02-06T04:27:19.570Z,6.97
2023-02-06T04:29:24.570Z,6.05
2023-02-06T04:31:27.957Z,4.15
2023-02-06T04:33:31.307Z,4.15
2023-02-06T04:35:34.940Z,4.65
2023-02-06T04:37:38.865Z,7.47
2023-02-06T04:39:42.260Z,8.75
2023-02-06T04:41:45.650Z,6.50
2023-02-06T04:43:49.094Z,4.93
2023-02-06T04:45:54.023Z,8.25
2023-02-06T04:47:59.379Z,8.73
2023-02-06T04:50:02.946Z,11.13
2023-02-06T04:52:06.544Z,6.72
2023-02-06T04:54:12.015Z,23.05
2023-02-06T04:56:15.699Z,6.45
2023-02-06T04:58:19.071Z,9.25
2023-02-06T05:00:22.707Z,11.77
2023-02-06T05:02:27.665Z,6.07
2023-02-06T05:04:31.051Z,8.27
2023-02-06T05:06:34.727Z,5.40
2023-02-06T05:08:38.140Z,6.40
2023-02-06T05:10:41.543Z,5.90
2023-02-06T05:12:45.132Z,7.85
2023-02-06T05:14:48.554Z,7.72
2023-02-06T05:16:52.109Z,5.50
2023-02-06T05:18:58.511Z,4.40
2023-02-06T05:21:02.212Z,4.43
2023-02-06T05:23:05.890Z,9.95
2023-02-06T05:25:09.719Z,5.15
2023-02-06T05:27:13.274Z,4.68
2023-02-06T05:29:16.628Z,4.85
2023-02-06T05:31:21.031Z,5.63
2023-02-06T05:33:24.780Z,4.30
2023-02-06T05:35:29.976Z,6.32
2023-02-06T05:37:33.521Z,4.35
2023-02-06T05:39:36.938Z,5.38
2023-02-06T05:41:40.512Z,5.82
2023-02-06T05:43:44.111Z,5.68
2023-02-06T05:45:47.808Z,3.75
2023-02-06T05:47:51.269Z,5.28
2023-02-06T05:49:54.831Z,4.78
2023-02-06T05:51:59.721Z,7.05
2023-02-06T05:54:03.168Z,5.43
2023-02-06T05:56:07.351Z,7.03
2023-02-06T05:58:10.753Z,4.97
2023-02-06T06:00:15.371Z,5.50
2023-02-06T06:02:18.987Z,3.88
2023-02-06T06:04:22.668Z,5.47
2023-02-06T06:06:26.162Z,5.80
2023-02-06T06:08:31.084Z,7.35
2023-02-06T06:10:34.554Z,4.45
2023-02-06T06:12:38.571Z,4.15
2023-02-06T06:14:41.984Z,3.63
2023-02-06T06:16:45.655Z,6.47
2023-02-06T06:18:49.071Z,4.80
2023-02-06T06:20:54.754Z,5.13
2023-02-06T06:22:58.130Z,7.88
2023-02-06T06:25:03.867Z,6.43
2023-02-06T06:27:10.660Z,4.13
2023-02-06T06:29:14.331Z,11.40
2023-02-06T06:31:18.192Z,8.40
2023-02-06T06:33:21.628Z,5.97
2023-02-06T06:35:26.170Z,12.20
2023-02-06T06:37:29.559Z,13.00
2023-02-06T06:39:33.044Z,12.00
2023-02-06T06:41:38.060Z,10.82
2023-02-06T06:43:42.416Z,10.52
2023-02-06T06:45:46.600Z,9.90
2023-02-06T06:47:50.084Z,6.28
2023-02-06T06:49:53.489Z,10.68
2023-02-06T06:51:56.877Z,9.43
2023-02-06T06:54:00.499Z,14.43
2023-02-06T06:56:05.071Z,11.45
2023-02-06T06:58:09.935Z,9.68
2023-02-06T07:00:15.134Z,8.38
2023-02-06T07:02:19.267Z,11.02
2023-02-06T07:04:23.158Z,6.18
2023-02-06T07:06:26.667Z,10.27
2023-02-06T07:08:30.264Z,7.82
2023-02-06T07:10:33.737Z,7.40
2023-02-06T07:12:37.251Z,4.50
2023-02-06T07:14:42.902Z,6.53
2023-02-06T07:16:46.378Z,4.55
2023-02-06T07:18:49.691Z,6.82
2023-02-06T07:20:53.150Z,4.22
2023-02-06T11:00:21.800Z,16.50
2023-02-06T11:02:29.024Z,14.63
2023-02-06T11:04:38.547Z,9.90
2023-02-06T11:06:45.948Z,13.20
2023-02-06T11:08:50.011Z,9.27
2023-02-06T11:10:53.594Z,11.10
2023-02-06T11:20:30.658Z,8.20
2023-02-06T11:22:44.293Z,10.67
2023-02-06T11:25:07.649Z,11.27
2023-02-06T11:27:16.729Z,10.07
2023-02-06T11:29:23.032Z,12.30
2023-02-06T11:31:45.444Z,13.25
2023-02-06T11:33:51.687Z,7.22
2023-02-06T11:36:00.046Z,12.13
2023-02-06T11:38:10.318Z,9.27
2023-02-06T11:40:24.751Z,11.10
2023-02-06T11:42:28.589Z,10.38
2023-02-06T11:44:38.337Z,10.15
2023-02-06T11:46:41.961Z,12.40
2023-02-06T11:48:47.266Z,11.35
2023-02-06T11:50:57.042Z,8.10
2023-02-06T12:17:21.424Z,9.27
2023-02-06T12:19:31.715Z,7.78
2023-02-06T12:21:43.857Z,16.70
2023-02-06T12:23:52.895Z,7.40
2023-02-06T12:26:00.943Z,14.32
2023-02-06T12:28:09.826Z,13.32
2023-02-06T12:30:30.465Z,9.73
2023-02-06T12:32:39.724Z,8.55
2023-02-06T12:34:53.926Z,14.20
2023-02-06T12:37:14.131Z,12.02
2023-02-06T12:39:21.238Z,11.48
2023-02-06T12:41:40.197Z,14.15
2023-02-06T12:43:46.687Z,13.82
2023-02-06T12:45:56.670Z,8.82
2023-02-06T13:22:40.416Z,9.02
2023-02-06T13:24:45.197Z,10.43
2023-02-06T13:27:15.412Z,10.00
2023-02-06T13:29:25.940Z,8.30
2023-02-06T13:31:34.630Z,14.02
2023-02-06T13:33:42.914Z,8.07
2023-02-06T13:36:00.154Z,9.70
2023-02-06T13:38:38.874Z,11.93
2023-02-06T13:40:42.245Z,8.83
2023-02-06T13:42:50.767Z,8.17
2023-02-06T13:44:54.767Z,10.30
2023-02-06T13:47:30.814Z,11.70
2023-02-06T13:50:07.200Z,10.63
2023-02-06T13:52:19.265Z,11.23
2023-02-06T13:54:57.228Z,10.35
2023-02-06T13:57:36.624Z,9.50
2023-02-06T13:59:46.168Z,10.23
2023-02-06T14:01:49.622Z,18.52
2023-02-06T14:03:55.199Z,10.00
2023-02-06T14:06:06.079Z,18.95
2023-02-06T14:08:19.586Z,9.52
2023-02-06T14:10:55.230Z,10.05
2023-02-06T14:13:12.781Z,7.65
2023-02-06T14:15:28.023Z,14.45
2023-02-06T14:17:46.705Z,8.07
2023-02-06T14:19:57.338Z,8.55
2023-02-06T14:22:11.177Z,12.43
2023-02-06T14:24:34.526Z,9.02
2023-02-06T14:26:48.600Z,9.73
2023-02-06T14:29:03.227Z,9.60
2023-02-06T14:31:18.423Z,9.20
2023-02-06T14:33:38.685Z,9.18
2023-02-06T14:36:09.474Z,8.80
2023-02-06T14:38:35.022Z,8.80
2023-02-06T14:40:42.766Z,10.48
2023-02-06T14:42:48.468Z,12.68
2023-02-06T14:44:57.201Z,8.75
2023-02-06T14:50:47.523Z,11.90
2023-02-06T14:52:57.556Z,9.57
2023-02-06T14:55:01.078Z,10.10
2023-02-06T14:57:08.300Z,7.97
2023-02-06T14:59:19.131Z,11.27
2023-02-06T15:01:24.737Z,11.68
2023-02-06T15:03:28.943Z,11.15
2023-02-06T15:05:32.471Z,10.98
2023-02-06T15:07:38.115Z,11.90
2023-02-06T15:09:44.276Z,15.43
2023-02-06T15:11:52.592Z,10.25
2023-02-06T15:13:57.503Z,9.48
2023-02-06T15:16:06.137Z,7.93
2023-02-06T15:18:18.089Z,11.57
2023-02-06T15:20:27.348Z,13.35
2023-02-06T15:22:32.068Z,11.73
2023-02-06T15:24:55.968Z,10.82
2023-02-06T15:27:06.982Z,10.68
2023-02-06T15:29:28.192Z,12.40
2023-02-06T15:31:33.456Z,11.82
2023-02-06T15:33:37.131Z,12.20
2023-02-06T15:35:42.373Z,12.73
2023-02-06T15:37:45.852Z,10.48
2023-02-06T15:39:49.833Z,11.00
2023-02-06T15:41:54.696Z,9.85
2023-02-06T15:44:01.908Z,9.45
2023-02-06T15:46:07.312Z,8.88
2023-02-06T15:48:18.602Z,10.60
2023-02-06T15:50:25.465Z,11.27
2023-02-06T15:52:39.809Z,9.85
2023-02-06T15:54:45.151Z,11.65
2023-02-06T15:56:52.060Z,10.55
2023-02-06T15:58:59.453Z,9.98
2023-02-06T16:01:05.824Z,7.50
2023-02-06T16:03:18.186Z,12.05
2023-02-06T16:05:27.823Z,10.85
2023-02-06T16:07:35.805Z,10.02
2023-02-06T16:09:43.846Z,13.20
2023-02-06T16:11:52.238Z,10.73
2023-02-06T16:13:56.230Z,13.55
2023-02-06T16:16:08.907Z,11.55
2023-02-06T16:18:28.315Z,12.25
2023-02-06T16:20:40.165Z,9.25
2023-02-06T16:22:43.901Z,13.23
2023-02-06T16:24:47.377Z,23.73
2023-02-06T16:26:53.155Z,13.43
2023-02-06T16:29:00.453Z,9.05
2023-02-06T16:31:06.064Z,10.70
2023-02-06T16:33:18.395Z,10.88
2023-02-06T16:35:22.406Z,7.78
2023-02-06T16:37:29.227Z,10.23
2023-02-06T16:39:32.643Z,9.85
2023-02-06T16:41:38.296Z,12.07
2023-02-06T16:43:42.295Z,11.25
2023-02-06T16:45:46.692Z,10.40
2023-02-06T16:47:50.204Z,11.77
2023-02-06T16:49:53.871Z,12.60
2023-02-06T16:51:57.564Z,11.80
2023-02-06T16:54:02.748Z,17.65
2023-02-06T16:56:06.947Z,31.77
2023-02-06T16:58:14.347Z,26.52
2023-02-06T17:00:20.795Z,21.40
2023-02-06T17:02:24.234Z,13.55
2023-02-06T17:04:27.654Z,17.08
2023-02-06T17:06:35.419Z,14.30
2023-02-06T17:08:40.380Z,15.68
2023-02-06T17:10:46.791Z,13.75
2023-02-06T17:12:51.189Z,13.45
2023-02-06T17:14:54.685Z,30.17
2023-02-06T17:16:58.105Z,32.22
2023-02-06T17:19:01.674Z,26.50
2023-02-06T17:21:05.126Z,23.00
2023-02-06T17:23:10.711Z,19.40
2023-02-06T17:25:14.139Z,17.33
2023-02-06T17:27:20.622Z,16.02
2023-02-06T17:29:24.025Z,15.35
2023-02-06T17:31:27.522Z,13.48
2023-02-06T17:33:31.117Z,11.43
2023-02-06T17:35:36.800Z,11.57
2023-02-06T17:37:40.355Z,17.75
2023-02-06T17:39:43.697Z,10.48
2023-02-06T17:41:47.428Z,12.35
2023-02-06T17:43:52.281Z,10.52
2023-02-06T17:45:55.773Z,10.98
2023-02-06T17:47:59.377Z,13.88
2023-02-06T17:50:02.711Z,19.90
2023-02-06T17:52:06.327Z,31.88
2023-02-06T17:54:09.951Z,28.63
2023-02-06T17:56:14.669Z,29.33
2023-02-06T17:58:18.804Z,27.20
2023-02-06T18:00:25.159Z,28.95
2023-02-06T18:02:28.501Z,27.65
2023-02-06T18:04:32.042Z,19.83
2023-02-06T18:06:36.463Z,22.00
2023-02-06T18:08:40.758Z,16.77
2023-02-06T18:10:44.204Z,21.65
2023-02-06T18:12:47.741Z,26.70
2023-02-06T18:14:51.347Z,22.45
2023-02-06T18:16:56.095Z,30.90
2023-02-06T18:18:59.953Z,42.33
2023-02-06T18:21:03.420Z,46.83
2023-02-06T18:23:06.853Z,44.75
2023-02-06T18:25:12.092Z,30.08
2023-02-06T18:27:16.034Z,29.67
2023-02-06T18:29:19.451Z,29.05
2023-02-06T18:31:26.566Z,29.50
2023-02-06T18:33:33.865Z,27.90
2023-02-06T18:35:39.196Z,30.52
2023-02-06T18:37:43.363Z,36.72
2023-02-06T18:39:46.945Z,38.35
2023-02-06T18:42:07.649Z,39.17
2023-02-06T18:44:12.415Z,36.03
2023-02-06T18:46:15.909Z,36.17
2023-02-06T18:48:19.406Z,37.58
2023-02-06T18:50:24.408Z,30.77
2023-02-06T18:52:27.839Z,40.15
2023-02-06T18:54:31.461Z,30.63
2023-02-06T18:56:35.391Z,30.98
2023-02-06T18:58:38.882Z,46.88
2023-02-06T19:00:43.460Z,42.20
2023-02-06T19:02:46.931Z,31.52
2023-02-06T19:04:50.353Z,40.60
2023-02-06T19:06:55.537Z,47.15
2023-02-06T19:08:59.636Z,36.85
2023-02-06T19:11:03.028Z,40.50
2023-02-06T19:13:06.526Z,47.05
2023-02-06T19:15:11.487Z,46.17
2023-02-06T19:17:14.891Z,37.20
2023-02-06T19:19:18.416Z,32.65
2023-02-06T19:21:23.658Z,35.97
2023-02-06T19:23:28.539Z,35.65
2023-02-06T19:25:31.944Z,29.83
2023-02-06T19:27:35.804Z,29.63
2023-02-06T19:29:39.617Z,38.15
2023-02-06T19:31:43.099Z,40.28
2023-02-06T19:33:46.542Z,32.17
2023-02-06T19:35:50.009Z,36.45
2023-02-06T19:37:53.789Z,30.17
2023-02-06T19:39:58.723Z,30.98
2023-02-06T19:42:03.227Z,34.25
2023-02-06T19:44:09.493Z,27.05
2023-02-06T19:46:15.170Z,31.50
2023-02-06T19:48:18.555Z,28.80
2023-02-06T19:50:21.983Z,29.92
2023-02-06T19:52:26.292Z,25.02
2023-02-06T19:54:29.762Z,32.28
2023-02-06T19:56:38.393Z,21.65
2023-02-06T19:58:41.943Z,26.50
2023-02-06T20:00:45.398Z,28.23
2023-02-06T20:02:48.931Z,30.65
2023-02-06T20:04:52.251Z,27.88
2023-02-06T20:06:56.028Z,28.55
2023-02-06T20:08:59.454Z,31.40
2023-02-06T20:11:05.486Z,27.17
2023-02-06T20:13:10.314Z,26.48
2023-02-06T20:15:14.207Z,32.75
2023-02-06T20:17:18.651Z,30.35
2023-02-06T20:19:24.749Z,38.60
2023-02-06T20:21:31.381Z,26.88
2023-02-06T20:23:38.472Z,18.98
2023-02-06T20:25:41.855Z,26.20
2023-02-06T20:27:45.447Z,21.88
2023-02-06T20:29:50.278Z,24.65
2023-02-06T20:31:54.777Z,21.80
2023-02-06T20:33:58.410Z,24.33
2023-02-06T20:36:07.076Z,19.90
2023-02-06T20:38:10.992Z,19.70
2023-02-06T20:40:14.480Z,17.58
2023-02-06T20:42:19.436Z,24.65
2023-02-06T20:44:23.008Z,18.05
2023-02-06T20:46:29.833Z,17.25
2023-02-06T20:48:33.203Z,21.60
2023-02-06T20:50:36.811Z,24.25
2023-02-06T20:52:40.569Z,25.70
2023-02-06T20:54:44.114Z,17.08
2023-02-06T20:56:47.970Z,16.70
2023-02-06T20:58:52.104Z,18.83
2023-02-06T21:00:55.662Z,18.85
2023-02-06T21:03:00.534Z,20.75
2023-02-06T21:05:03.917Z,20.63
2023-02-06T21:07:07.401Z,14.05
2023-02-06T21:09:11.492Z,17.67
2023-02-06T21:11:15.292Z,19.13
2023-02-06T21:13:19.339Z,16.45
2023-02-06T21:15:22.923Z,18.75
2023-02-06T21:17:26.327Z,18.08
2023-02-06T21:19:31.219Z,20.42
2023-02-06T21:21:34.715Z,23.85
2023-02-06T21:23:39.023Z,19.05
2023-02-06T21:25:42.861Z,20.73
2023-02-06T21:27:46.259Z,17.15
2023-02-06T21:29:49.844Z,17.88
2023-02-06T21:32:07.276Z,18.17
2023-02-06T21:34:17.839Z,16.27
2023-02-06T21:36:23.028Z,16.40
2023-02-06T21:38:26.732Z,19.42
2023-02-06T21:40:30.153Z,18.13
2023-02-06T21:42:33.524Z,18.90
2023-02-06T21:44:38.162Z,16.27
2023-02-06T21:46:41.635Z,14.68
2023-02-06T21:48:45.638Z,16.10
2023-02-06T21:50:49.064Z,20.52
2023-02-06T21:52:53.880Z,18.05
2023-02-06T21:54:57.249Z,21.02
2023-02-06T21:57:00.674Z,17.02
2023-02-06T21:59:04.065Z,12.85
2023-02-06T22:01:09.007Z,16.02
2023-02-06T22:03:13.939Z,22.50
2023-02-06T22:05:17.586Z,14.40
2023-02-06T22:07:21.020Z,16.40
2023-02-06T22:09:25.826Z,13.82
2023-02-06T22:11:30.769Z,13.50
2023-02-06T22:13:34.176Z,12.80
2023-02-06T22:15:37.910Z,24.58
2023-02-06T22:17:41.547Z,14.35
2023-02-06T22:19:44.932Z,17.73
2023-02-06T22:21:48.430Z,15.40
2023-02-06T22:23:52.528Z,14.52
2023-02-06T22:25:57.470Z,20.65
2023-02-06T22:28:00.900Z,14.75
2023-02-06T22:30:04.654Z,20.15
2023-02-06T22:32:08.051Z,17.48
2023-02-06T22:34:15.122Z,14.70
2023-02-06T22:36:20.259Z,19.73
2023-02-06T22:38:23.724Z,16.92
2023-02-06T22:40:27.320Z,17.20
2023-02-06T22:42:32.246Z,18.35
2023-02-06T22:44:35.603Z,18.08
2023-02-06T22:46:40.735Z,15.93
2023-02-06T22:48:44.160Z,20.65
2023-02-06T22:50:47.583Z,18.40
2023-02-06T22:53:08.378Z,22.58
2023-02-06T22:55:12.358Z,23.63
2023-02-06T22:57:15.707Z,23.33
2023-02-06T22:59:22.758Z,20.23
2023-02-06T23:01:30.718Z,22.38
2023-02-06T23:03:34.156Z,22.30
2023-02-06T23:05:37.839Z,18.92
2023-02-06T23:07:41.443Z,13.55
2023-02-06T23:09:44.879Z,17.63
2023-02-06T23:11:48.786Z,12.90
2023-02-06T23:13:56.391Z,16.77
2023-02-06T23:16:01.482Z,19.92
2023-02-06T23:18:05.074Z,19.73
2023-02-06T23:20:09.515Z,13.23
2023-02-06T23:22:13.492Z,16.83
2023-02-06T23:24:17.471Z,27.45
2023-02-06T23:26:21.326Z,20.90
2023-02-06T23:28:26.059Z,20.20
2023-02-06T23:30:29.442Z,15.52
2023-02-06T23:32:34.244Z,17.70
2023-02-06T23:34:39.196Z,19.45
2023-02-06T23:36:43.689Z,25.55
2023-02-06T23:38:48.411Z,17.23
2023-02-06T23:40:51.762Z,20.40
2023-02-06T23:42:55.354Z,19.80
2023-02-06T23:44:58.932Z,17.92
2023-02-06T23:47:02.291Z,17.08
2023-02-06T23:49:07.644Z,15.38
2023-02-06T23:51:11.076Z,21.95
2023-02-06T23:53:14.467Z,18.90
2023-02-06T23:55:18.101Z,22.02
2023-02-06T23:57:21.456Z,19.23
2023-02-06T23:59:24.841Z,19.23
